Time;durP1;ratioP1;P1;durP2;ratioP2;P2;SDS_P1;SDS_P2;PMS_P1;PMS_P2;Temp;Humidity;BMP_temperature;BMP_pressure;BME280_temperature;BME280_humidity;BME280_pressure;Samples;Min_cycle;Max_cycle;Signal;HPM_P1;HPM_P2
2021/04/09 00:01:28;;;;;;;;;;;;;;;;;;5035757;28;19921;-83
2021/04/09 00:03:54;;;;;;;;;;;;;;;;;;5020269;28;20353;-83
2021/04/09 00:06:19;;;;;;;;;;;;;;;;;;5020391;28;19915;-84
2021/04/09 00:08:44;;;;;;;;;;;;;;;;;;5036851;28;19908;-83
2021/04/09 00:11:10;;;;;;;;;;;;;;;;;;5036090;28;19952;-84
2021/04/09 00:13:35;;;;;;;;;;;;;;;;;;5036284;28;20367;-84
2021/04/09 00:16:03;;;;;;;;;;;;;;;;;;5037082;28;19913;-84
2021/04/09 00:18:28;;;;;;;;;;;;;;;;;;5020277;28;19915;-83
2021/04/09 00:20:54;;;;;;;;;;;;;;;;;;5020031;28;19998;-85
2021/04/09 00:23:19;;;;;;;;;;;;;;;;;;5019991;28;19916;-85
2021/04/09 00:25:46;;;;;;;;;;;;;;;;;;5036270;28;19916;-85
2021/04/09 00:28:11;;;;;;;;;;;;;;;;;;5036241;28;19909;-86
2021/04/09 00:30:37;;;;;;;;;;;;;;;;;;5035926;28;20282;-86
2021/04/09 00:33:03;;;;;;;;;;;;;;;;;;5036168;28;19908;-85
2021/04/09 00:35:28;;;;;;;;;;;;;;;;;;5036418;28;20274;-85
2021/04/09 00:37:54;;;;;;;;;;;;;;;;;;5052704;28;19908;-86
2021/04/09 00:40:20;;;;;;;;;;;;;;;;;;5035947;28;19971;-85
2021/04/09 00:42:45;;;;;;;;;;;;;;;;;;5035970;28;19919;-86
2021/04/09 00:45:11;;;;;;;;;;;;;;;;;;5070005;28;20019;-84
2021/04/09 00:47:36;;;;;;;;;;;;;;;;;;5036276;28;19912;-86
2021/04/09 00:50:02;;;;;;;;;;;;;;;;;;5052590;28;20258;-86
2021/04/09 00:52:28;;;;;;;;;;;;;;;;;;5052368;28;19909;-85
2021/04/09 00:54:53;;;;;;;;;;;;;;;;;;5069370;28;20324;-86
2021/04/09 00:57:19;;;;;;;;;;;;;;;;;;5052948;28;19956;-85
2021/04/09 00:59:44;;;;;;;;;;;;;;;;;;5052871;28;19909;-85
2021/04/09 01:02:09;;;;;;;;;;;;;;;;;;5060359;28;20324;-86
2021/04/09 01:04:34;;;;;;;;;;;;;;;;;;5052576;28;19948;-86
2021/04/09 01:07:00;;;;;;;;;;;;;;;;;;5052282;28;19909;-85
2021/04/09 01:09:25;;;;;;;;;;;;;;;;;;5034412;28;20158;-86
2021/04/09 01:11:50;;;;;;;;;;;;;;;;;;5052016;28;19927;-86
2021/04/09 01:14:15;;;;;;;;;;;;;;;;;;5035669;28;19928;-86
2021/04/09 01:16:43;;;;;;;;;;;;;;;;;;5052389;28;20428;-86
2021/04/09 01:19:08;;;;;;;;;;;;;;;;;;5052042;28;19909;-86
2021/04/09 01:21:41;;;;;;;;;;;;;;;;;;5068632;28;19982;-86
2021/04/09 01:24:09;;;;;;;;;;;;;;;;;;5051810;28;19916;-86
2021/04/09 01:26:38;;;;;;;;;;;;;;;;;;5052043;28;19916;-86
2021/04/09 01:29:35;;;;;;;;;;;;;;;;;;5051725;28;19916;-85
2021/04/09 01:32:01;;;;;;;;;;;;;;;;;;5040380;28;19913;-86
2021/04/09 01:34:30;;;;;;;;;;;;;;;;;;5051865;28;20317;-86
2021/04/09 01:36:56;;;;;;;;;;;;;;;;;;5018575;28;19920;-86
2021/04/09 01:39:27;;;;;;;;;;;;;;;;;;5018285;28;19908;-85
2021/04/09 01:41:53;;;;;;;;;;;;;;;;;;5051363;28;19913;-86
2021/04/09 01:44:19;;;;;;;;;;;;;;;;;;5035268;28;19912;-86
2021/04/09 01:46:44;;;;;;;;;;;;;;;;;;5018792;28;19908;-86
2021/04/09 01:49:10;;;;;;;;;;;;;;;;;;5018423;28;20525;-86
2021/04/09 01:51:35;;;;;;;;;;;;;;;;;;5018492;28;19919;-86
2021/04/09 01:54:00;;;;;;;;;;;;;;;;;;5018631;28;19919;-88
2021/04/09 01:56:26;;;;;;;;;;;;;;;;;;5018290;28;19954;-86
2021/04/09 01:58:51;;;;;;;;;;;;;;;;;;5035049;28;20389;-86
2021/04/09 02:01:16;;;;;;;;;;;;;;;;;;5019075;28;19937;-86
2021/04/09 02:03:41;;;;;;;;;;;;;;;;;;5041785;28;19913;-87
2021/04/09 02:06:07;;;;;;;;;;;;;;;;;;5034626;28;20297;-86
2021/04/09 02:08:32;;;;;;;;;;;;;;;;;;5051363;28;19916;-85
2021/04/09 02:10:57;;;;;;;;;;;;;;;;;;5034592;28;19912;-86
2021/04/09 02:13:24;;;;;;;;;;;;;;;;;;5034382;28;19923;-86
2021/04/09 02:15:51;;;;;;;;;;;;;;;;;;5034487;28;19913;-87
2021/04/09 02:18:16;;;;;;;;;;;;;;;;;;5034821;28;20409;-86
2021/04/09 02:20:43;;;;;;;;;;;;;;;;;;5051299;28;19908;-87
2021/04/09 02:23:08;;;;;;;;;;;;;;;;;;5051198;28;19913;-86
2021/04/09 02:25:33;;;;;;;;;;;;;;;;;;5034646;28;19974;-87
2021/04/09 02:27:58;;;;;;;;;;;;;;;;;;5034387;28;19959;-86
2021/04/09 02:30:25;;;;;;;;;;;;;;;;;;5030483;28;19909;-86
2021/04/09 02:32:50;;;;;;;;;;;;;;;;;;5014769;28;19978;-86
2021/04/09 02:35:15;;;;;;;;;;;;;;;;;;5014482;28;20330;-86
2021/04/09 02:37:42;;;;;;;;;;;;;;;;;;5031322;28;19963;-87
2021/04/09 02:40:12;;;;;;;;;;;;;;;;;;5031321;28;19955;-86
2021/04/09 02:42:37;;;;;;;;;;;;;;;;;;5014520;28;19913;-86
2021/04/09 02:45:02;;;;;;;;;;;;;;;;;;5014797;28;20354;-87
2021/04/09 02:47:28;;;;;;;;;;;;;;;;;;5014563;28;19909;-87
2021/04/09 02:50:13;;;;;;;;;;;;;;;;;;5014687;28;19916;-87
2021/04/09 02:52:41;;;;;;;;;;;;;;;;;;5047225;28;19909;-87
2021/04/09 02:55:14;;;;;;;;;;;;;;;;;;5030820;28;19978;-87
2021/04/09 02:57:40;;;;;;;;;;;;;;;;;;5015051;28;20005;-87
2021/04/09 03:00:05;;;;;;;;;;;;;;;;;;5014461;28;19912;-87
2021/04/09 03:02:31;;;;;;;;;;;;;;;;;;5025936;28;20018;-87
2021/04/09 03:04:56;;;;;;;;;;;;;;;;;;5050926;28;19919;-84
2021/04/09 03:07:22;;;;;;;;;;;;;;;;;;5017988;28;20296;-84
2021/04/09 03:09:47;;;;;;;;;;;;;;;;;;5034269;28;19916;-85
2021/04/09 03:12:12;;;;;;;;;;;;;;;;;;5033859;28;19917;-84
2021/04/09 03:14:38;;;;;;;;;;;;;;;;;;5034168;28;19913;-86
2021/04/09 03:17:04;;;;;;;;;;;;;;;;;;5034371;28;20350;-87
2021/04/09 03:19:29;;;;;;;;;;;;;;;;;;5017368;28;19913;-86
2021/04/09 03:21:54;;;;;;;;;;;;;;;;;;5033675;28;19932;-86
2021/04/09 03:24:19;;;;;;;;;;;;;;;;;;5050447;28;19913;-87
2021/04/09 03:26:46;;;;;;;;;;;;;;;;;;5034074;28;19909;-86
2021/04/09 03:29:11;;;;;;;;;;;;;;;;;;5031620;28;19913;-86
2021/04/09 03:31:36;;;;;;;;;;;;;;;;;;4997756;28;20351;-87
2021/04/09 03:34:01;;;;;;;;;;;;;;;;;;5000114;28;19909;-84
2021/04/09 03:36:27;;;;;;;;;;;;;;;;;;5017840;28;20359;-84
2021/04/09 03:38:52;;;;;;;;;;;;;;;;;;5017727;28;19909;-85
2021/04/09 03:41:17;;;;;;;;;;;;;;;;;;5017269;28;19956;-85
2021/04/09 03:43:42;;;;;;;;;;;;;;;;;;5034051;28;20363;-84
2021/04/09 03:46:08;;;;;;;;;;;;;;;;;;5017682;28;20000;-85
2021/04/09 03:48:35;;;;;;;;;;;;;;;;;;5017257;28;19909;-85
2021/04/09 03:51:00;;;;;;;;;;;;;;;;;;5017536;28;19962;-85
2021/04/09 03:53:25;;;;;;;;;;;;;;;;;;5017744;28;20016;-85
2021/04/09 03:55:51;;;;;;;;;;;;;;;;;;5017215;28;19924;-85
2021/04/09 03:58:16;;;;;;;;;;;;;;;;;;5017209;28;19917;-87
2021/04/09 04:00:41;;;;;;;;;;;;;;;;;;5017063;28;19916;-87
2021/04/09 04:03:06;;;;;;;;;;;;;;;;;;5029441;28;19916;-87
2021/04/09 04:05:32;;;;;;;;;;;;;;;;;;5034059;28;19909;-87
2021/04/09 04:07:57;;;;;;;;;;;;;;;;;;5017296;28;19909;-86
2021/04/09 04:10:22;;;;;;;;;;;;;;;;;;5033217;28;19939;-86
2021/04/09 04:12:48;;;;;;;;;;;;;;;;;;5033578;28;20282;-87
2021/04/09 04:15:13;;;;;;;;;;;;;;;;;;5046997;28;19913;-86
2021/04/09 04:17:38;;;;;;;;;;;;;;;;;;5020326;28;19909;-86
2021/04/09 04:20:04;;;;;;;;;;;;;;;;;;5020359;28;19952;-87
2021/04/09 04:22:30;;;;;;;;;;;;;;;;;;5053450;28;19955;-87
2021/04/09 04:24:55;;;;;;;;;;;;;;;;;;5036337;28;19909;-87
2021/04/09 04:27:22;;;;;;;;;;;;;;;;;;5020094;28;19916;-86
2021/04/09 04:29:47;;;;;;;;;;;;;;;;;;5033214;28;19999;-87
2021/04/09 04:32:12;;;;;;;;;;;;;;;;;;5049272;28;20008;-87
2021/04/09 04:34:37;;;;;;;;;;;;;;;;;;5033418;28;19959;-87
2021/04/09 04:37:03;;;;;;;;;;;;;;;;;;5016639;28;20286;-86
2021/04/09 04:39:28;;;;;;;;;;;;;;;;;;5016164;28;19909;-87
2021/04/09 04:41:53;;;;;;;;;;;;;;;;;;5016164;28;19916;-87
2021/04/09 04:44:18;;;;;;;;;;;;;;;;;;5015651;28;20290;-86
2021/04/09 04:46:44;;;;;;;;;;;;;;;;;;5032772;28;19909;-86
2021/04/09 04:49:09;;;;;;;;;;;;;;;;;;5016369;28;19909;-86
2021/04/09 04:51:34;;;;;;;;;;;;;;;;;;5032691;28;19909;-84
2021/04/09 04:53:59;;;;;;;;;;;;;;;;;;5032629;28;20251;-84
2021/04/09 04:56:25;;;;;;;;;;;;;;;;;;5049317;28;19944;-84
2021/04/09 04:58:50;;;;;;;;;;;;;;;;;;5016155;28;20378;-84
2021/04/09 05:01:16;;;;;;;;;;;;;;;;;;5016298;28;19924;-84
2021/04/09 05:03:41;;;;;;;;;;;;;;;;;;5019254;28;19980;-84
2021/04/09 05:06:06;;;;;;;;;;;;;;;;;;5019425;28;20374;-84
2021/04/09 05:08:32;;;;;;;;;;;;;;;;;;5019465;28;20106;-84
2021/04/09 05:10:57;;;;;;;;;;;;;;;;;;5019279;28;19913;-85
2021/04/09 05:13:22;;;;;;;;;;;;;;;;;;5019089;28;20306;-84
2021/04/09 05:15:48;;;;;;;;;;;;;;;;;;5035694;28;19920;-84
2021/04/09 05:18:13;;;;;;;;;;;;;;;;;;5019212;28;19962;-84
2021/04/09 05:20:38;;;;;;;;;;;;;;;;;;5052292;28;19979;-86
2021/04/09 05:23:03;;;;;;;;;;;;;;;;;;5019007;28;19943;-86
2021/04/09 05:25:29;;;;;;;;;;;;;;;;;;5018635;28;19908;-86
2021/04/09 05:27:54;;;;;;;;;;;;;;;;;;5019018;28;20446;-86
2021/04/09 05:30:21;;;;;;;;;;;;;;;;;;5051315;28;20381;-86
2021/04/09 05:32:47;;;;;;;;;;;;;;;;;;5052013;28;20013;-86
2021/04/09 05:35:12;;;;;;;;;;;;;;;;;;5035083;28;20309;-84
2021/04/09 05:37:37;;;;;;;;;;;;;;;;;;5035212;28;19909;-83
2021/04/09 05:40:04;;;;;;;;;;;;;;;;;;5051501;28;19948;-83
2021/04/09 05:42:29;;;;;;;;;;;;;;;;;;5034894;28;19913;-83
2021/04/09 05:44:54;;;;;;;;;;;;;;;;;;5051247;28;20058;-84
2021/04/09 05:47:19;;;;;;;;;;;;;;;;;;5051597;28;19915;-84
2021/04/09 05:49:45;;;;;;;;;;;;;;;;;;5051403;28;20265;-84
2021/04/09 05:52:10;;;;;;;;;;;;;;;;;;5051333;28;19908;-84
2021/04/09 05:54:37;;;;;;;;;;;;;;;;;;5051315;28;19962;-83
2021/04/09 05:57:02;;;;;;;;;;;;;;;;;;5051347;28;19915;-83
2021/04/09 05:59:27;;;;;;;;;;;;;;;;;;5067800;28;19909;-83
2021/04/09 06:01:53;;;;;;;;;;;;;;;;;;5044859;28;20271;-82
2021/04/09 06:04:18;;;;;;;;;;;;;;;;;;5051190;28;19976;-83
2021/04/09 06:06:43;;;;;;;;;;;;;;;;;;5034508;28;19909;-83
2021/04/09 06:09:09;;;;;;;;;;;;;;;;;;5017652;28;19908;-83
2021/04/09 06:11:34;;;;;;;;;;;;;;;;;;5034802;28;19999;-83
2021/04/09 06:13:59;;;;;;;;;;;;;;;;;;5050815;28;19939;-83
2021/04/09 06:16:25;;;;;;;;;;;;;;;;;;5034512;28;19909;-84
2021/04/09 06:18:50;;;;;;;;;;;;;;;;;;5018180;28;20003;-83
2021/04/09 06:21:15;;;;;;;;;;;;;;;;;;5034208;28;19913;-85
2021/04/09 06:23:40;;;;;;;;;;;;;;;;;;5051081;28;19920;-85
2021/04/09 06:26:06;;;;;;;;;;;;;;;;;;5033992;28;20322;-85
2021/04/09 06:28:33;;;;;;;;;;;;;;;;;;5017361;28;19913;-85
2021/04/09 06:31:00;;;;;;;;;;;;;;;;;;5014613;28;19944;-85
2021/04/09 06:33:26;;;;;;;;;;;;;;;;;;5030876;28;19956;-85
2021/04/09 06:35:51;;;;;;;;;;;;;;;;;;5047806;28;19913;-85
2021/04/09 06:38:16;;;;;;;;;;;;;;;;;;5047683;28;20004;-83
2021/04/09 06:40:42;;;;;;;;;;;;;;;;;;5030571;28;19909;-82
2021/04/09 06:43:07;;;;;;;;;;;;;;;;;;5047156;28;19913;-83
2021/04/09 06:45:32;;;;;;;;;;;;;;;;;;5031015;28;20295;-83
2021/04/09 06:47:57;;;;;;;;;;;;;;;;;;5030653;28;19952;-82
2021/04/09 06:50:26;;;;;;;;;;;;;;;;;;5030849;28;20282;-83
2021/04/09 06:52:54;;;;;;;;;;;;;;;;;;5030641;28;19963;-82
2021/04/09 06:55:19;;;;;;;;;;;;;;;;;;5030744;28;19913;-82
2021/04/09 06:57:45;;;;;;;;;;;;;;;;;;5030454;28;20244;-82
2021/04/09 07:00:14;;;;;;;;;;;;;;;;;;5047062;28;20251;-82
2021/04/09 07:02:42;;;;;;;;;;;;;;;;;;5033557;28;19909;-82
2021/04/09 07:05:08;;;;;;;;;;;;;;;;;;5033824;28;19944;-83
2021/04/09 07:07:33;;;;;;;;;;;;;;;;;;5017640;28;19967;-82
2021/04/09 07:09:58;;;;;;;;;;;;;;;;;;5021415;28;19909;-82
2021/04/09 07:12:25;;;;;;;;;;;;;;;;;;5020975;28;19939;-82
2021/04/09 07:14:54;;;;;;;;;;;;;;;;;;5054387;28;19913;-82
2021/04/09 07:17:30;;;;;;;;;;;;;;;;;;5037463;28;19908;-82
2021/04/09 07:20:14;;;;;;;;;;;;;;;;;;5037639;28;19909;-82
2021/04/09 07:22:40;;;;;;;;;;;;;;;;;;5021115;28;19952;-82
2021/04/09 07:25:06;;;;;;;;;;;;;;;;;;5037331;28;20378;-82
2021/04/09 07:27:31;;;;;;;;;;;;;;;;;;5054043;28;19913;-82
2021/04/09 07:29:57;;;;;;;;;;;;;;;;;;5033721;28;19955;-83
2021/04/09 07:32:22;;;;;;;;;;;;;;;;;;5017401;28;19999;-82
2021/04/09 07:34:52;;;;;;;;;;;;;;;;;;5017864;28;19909;-83
2021/04/09 07:37:17;;;;;;;;;;;;;;;;;;5034118;28;20393;-83
2021/04/09 07:39:43;;;;;;;;;;;;;;;;;;5017262;28;19936;-83
2021/04/09 07:42:08;;;;;;;;;;;;;;;;;;5033233;28;19920;-83
2021/04/09 07:44:34;;;;;;;;;;;;;;;;;;5017321;28;19967;-83
2021/04/09 07:47:28;;;;;;;;;;;;;;;;;;5033846;28;19913;-83
2021/04/09 07:50:03;;;;;;;;;;;;;;;;;;5017229;28;19909;-82
2021/04/09 07:52:39;;;;;;;;;;;;;;;;;;5016969;28;19958;-82
2021/04/09 07:55:11;;;;;;;;;;;;;;;;;;5033245;28;19963;-82
2021/04/09 07:57:37;;;;;;;;;;;;;;;;;;5050209;28;19916;-83
2021/04/09 08:00:02;;;;;;;;;;;;;;;;;;5033296;28;20035;-82
2021/04/09 08:02:37;;;;;;;;;;;;;;;;;;5036083;28;19916;-82
2021/04/09 08:05:02;;;;;;;;;;;;;;;;;;5036709;28;19912;-82
2021/04/09 08:07:31;;;;;;;;;;;;;;;;;;5053546;28;19909;-82
2021/04/09 08:09:56;;;;;;;;;;;;;;;;;;5019936;28;19913;-83
2021/04/09 08:12:25;;;;;;;;;;;;;;;;;;5036399;28;19967;-82
2021/04/09 08:14:50;;;;;;;;;;;;;;;;;;5020094;28;19957;-83
2021/04/09 08:17:17;;;;;;;;;;;;;;;;;;5036751;28;19916;-84
2021/04/09 08:19:43;;;;;;;;;;;;;;;;;;5020036;28;19915;-82
2021/04/09 08:22:09;;;;;;;;;;;;;;;;;;5020234;28;19908;-82
2021/04/09 08:24:36;;;;;;;;;;;;;;;;;;5019866;28;20293;-82
2021/04/09 08:27:01;;;;;;;;;;;;;;;;;;5036865;28;19909;-82
2021/04/09 08:29:26;;;;;;;;;;;;;;;;;;5033027;28;20065;-83
2021/04/09 08:31:52;;;;;;;;;;;;;;;;;;5015982;28;19909;-82
2021/04/09 08:34:19;;;;;;;;;;;;;;;;;;5033239;28;19912;-83
2021/04/09 08:36:45;;;;;;;;;;;;;;;;;;5016369;28;20003;-83
2021/04/09 08:39:13;;;;;;;;;;;;;;;;;;5032587;28;20370;-82
2021/04/09 08:41:39;;;;;;;;;;;;;;;;;;5032665;28;19995;-83
2021/04/09 08:44:08;;;;;;;;;;;;;;;;;;5032611;28;19960;-82
2021/04/09 08:46:34;;;;;;;;;;;;;;;;;;5049527;28;19932;-82
2021/04/09 08:48:59;;;;;;;;;;;;;;;;;;5016291;28;20362;-82
2021/04/09 08:51:24;;;;;;;;;;;;;;;;;;5016147;28;19913;-83
2021/04/09 08:53:49;;;;;;;;;;;;;;;;;;5032452;28;19952;-83
2021/04/09 08:56:29;;;;;;;;;;;;;;;;;;5032505;28;19916;-83
2021/04/09 08:58:54;;;;;;;;;;;;;;;;;;5032630;28;20252;-82
2021/04/09 09:01:20;;;;;;;;;;;;;;;;;;5016806;28;19944;-82
2021/04/09 09:03:45;;;;;;;;;;;;;;;;;;5052152;28;19947;-82
2021/04/09 09:06:11;;;;;;;;;;;;;;;;;;5052121;28;19909;-83
2021/04/09 09:08:46;;;;;;;;;;;;;;;;;;5018894;28;20331;-83
2021/04/09 09:11:11;;;;;;;;;;;;;;;;;;5068898;28;20003;-83
2021/04/09 09:13:43;;;;;;;;;;;;;;;;;;5035310;28;20007;-83
2021/04/09 09:16:31;;;;;;;;;;;;;;;;;;5035324;28;19917;-83
2021/04/09 09:18:57;;;;;;;;;;;;;;;;;;5034723;28;19913;-83
2021/04/09 09:21:24;;;;;;;;;;;;;;;;;;5035155;28;20301;-83
2021/04/09 09:24:00;;;;;;;;;;;;;;;;;;5035596;28;19913;-83
2021/04/09 09:26:38;;;;;;;;;;;;;;;;;;5018770;28;19908;-83
2021/04/09 09:29:07;;;;;;;;;;;;;;;;;;5035193;28;19916;-82
2021/04/09 09:31:33;;;;;;;;;;;;;;;;;;5051175;28;19912;-84
2021/04/09 09:34:16;;;;;;;;;;;;;;;;;;5019024;28;20361;-84
2021/04/09 09:37:00;;;;;;;;;;;;;;;;;;5051619;28;19916;-82
2021/04/09 09:39:36;;;;;;;;;;;;;;;;;;5051500;28;20313;-85
2021/04/09 09:42:02;;;;;;;;;;;;;;;;;;5051550;28;20015;-84
2021/04/09 09:44:28;;;;;;;;;;;;;;;;;;5035293;28;19916;-86
2021/04/09 09:47:06;;;;;;;;;;;;;;;;;;5018490;28;19916;-85
2021/04/09 09:49:36;;;;;;;;;;;;;;;;;;5018376;28;19913;-85
2021/04/09 09:52:04;;;;;;;;;;;;;;;;;;5018787;28;19920;-84
2021/04/09 09:54:30;;;;;;;;;;;;;;;;;;5051514;28;19917;-86
2021/04/09 09:56:56;;;;;;;;;;;;;;;;;;5018398;28;20013;-86
2021/04/09 09:59:22;;;;;;;;;;;;;;;;;;5018664;28;19919;-86
2021/04/09 10:01:51;;;;;;;;;;;;;;;;;;5014631;28;20359;-87
2021/04/09 10:04:16;;;;;;;;;;;;;;;;;;5032935;28;19909;-87
2021/04/09 10:06:46;;;;;;;;;;;;;;;;;;5018444;28;19913;-85
2021/04/09 10:09:11;;;;;;;;;;;;;;;;;;5018750;28;20042;-85
2021/04/09 10:11:37;;;;;;;;;;;;;;;;;;5018341;28;20013;-85
2021/04/09 10:14:02;;;;;;;;;;;;;;;;;;5034980;28;20020;-85
2021/04/09 10:16:27;;;;;;;;;;;;;;;;;;5018615;28;19909;-85
2021/04/09 10:18:53;;;;;;;;;;;;;;;;;;5018466;28;20380;-86
2021/04/09 10:21:19;;;;;;;;;;;;;;;;;;5051093;28;19991;-87
2021/04/09 10:23:45;;;;;;;;;;;;;;;;;;5052931;28;19952;-86
2021/04/09 10:26:11;;;;;;;;;;;;;;;;;;5034947;28;19999;-86
2021/04/09 10:28:36;;;;;;;;;;;;;;;;;;5051387;28;20069;-86
2021/04/09 10:31:11;;;;;;;;;;;;;;;;;;5015004;28;19913;-84
2021/04/09 10:33:39;;;;;;;;;;;;;;;;;;5031262;28;19917;-85
2021/04/09 10:36:20;;;;;;;;;;;;;;;;;;5031134;28;19909;-85
2021/04/09 10:38:50;;;;;;;;;;;;;;;;;;5031046;28;19990;-85
2021/04/09 10:41:38;;;;;;;;;;;;;;;;;;5031162;28;19916;-86
2021/04/09 10:44:04;;;;;;;;;;;;;;;;;;5034228;28;19917;-86
2021/04/09 10:46:33;;;;;;;;;;;;;;;;;;5019197;28;19936;-86
2021/04/09 10:49:03;;;;;;;;;;;;;;;;;;5035155;28;19947;-86
2021/04/09 10:51:33;;;;;;;;;;;;;;;;;;5018884;28;19916;-86
2021/04/09 10:53:58;;;;;;;;;;;;;;;;;;5035486;28;19936;-85
2021/04/09 10:56:24;;;;;;;;;;;;;;;;;;5035307;28;19908;-85
2021/04/09 10:58:49;;;;;;;;;;;;;;;;;;5018814;28;19916;-86
2021/04/09 11:01:14;;;;;;;;;;;;;;;;;;5035447;28;19955;-86
2021/04/09 11:03:40;;;;;;;;;;;;;;;;;;5021989;28;19951;-86
2021/04/09 11:06:05;;;;;;;;;;;;;;;;;;5022277;28;19914;-86
2021/04/09 11:08:34;;;;;;;;;;;;;;;;;;5021815;28;20313;-86
2021/04/09 11:11:00;;;;;;;;;;;;;;;;;;5038233;28;19951;-85
2021/04/09 11:13:29;;;;;;;;;;;;;;;;;;5021793;28;19960;-85
2021/04/09 11:15:54;;;;;;;;;;;;;;;;;;5038509;28;19912;-86
2021/04/09 11:18:20;;;;;;;;;;;;;;;;;;5037971;28;19959;-85
2021/04/09 11:20:45;;;;;;;;;;;;;;;;;;5021591;28;20382;-86
2021/04/09 11:23:11;;;;;;;;;;;;;;;;;;5021403;28;19952;-85
2021/04/09 11:25:37;;;;;;;;;;;;;;;;;;5021186;28;19916;-84
2021/04/09 11:28:03;;;;;;;;;;;;;;;;;;5021170;28;19909;-85
2021/04/09 11:30:29;;;;;;;;;;;;;;;;;;5017810;28;19909;-85
2021/04/09 11:32:57;;;;;;;;;;;;;;;;;;5018101;28;19909;-85
2021/04/09 11:35:23;;;;;;;;;;;;;;;;;;5017768;28;20000;-84
2021/04/09 11:37:55;;;;;;;;;;;;;;;;;;5017955;28;19956;-85
2021/04/09 11:40:37;;;;;;;;;;;;;;;;;;5033918;28;19956;-84
2021/04/09 11:43:02;;;;;;;;;;;;;;;;;;5017545;28;19924;-85
2021/04/09 11:45:37;;;;;;;;;;;;;;;;;;5018048;28;20364;-85
2021/04/09 11:48:02;;;;;;;;;;;;;;;;;;5033801;28;19944;-86
2021/04/09 11:50:27;;;;;;;;;;;;;;;;;;5017431;28;19963;-85
2021/04/09 11:52:55;;;;;;;;;;;;;;;;;;5017755;28;19909;-85
2021/04/09 11:55:26;;;;;;;;;;;;;;;;;;5033466;28;19924;-85
2021/04/09 11:57:51;;;;;;;;;;;;;;;;;;5017842;28;19913;-85
2021/04/09 12:00:22;;;;;;;;;;;;;;;;;;5033765;28;19924;-85
2021/04/09 12:02:58;;;;;;;;;;;;;;;;;;5020472;28;19916;-85
2021/04/09 12:05:23;;;;;;;;;;;;;;;;;;5037415;28;20388;-85
2021/04/09 12:07:48;;;;;;;;;;;;;;;;;;5020864;28;19909;-85
2021/04/09 12:10:14;;;;;;;;;;;;;;;;;;5020626;28;19909;-84
2021/04/09 12:12:40;;;;;;;;;;;;;;;;;;5020270;28;19912;-85
2021/04/09 12:15:05;;;;;;;;;;;;;;;;;;5020619;28;19912;-85
2021/04/09 12:17:30;;;;;;;;;;;;;;;;;;5020256;28;20362;-85
2021/04/09 12:19:57;;;;;;;;;;;;;;;;;;5020186;28;20450;-85
2021/04/09 12:22:23;;;;;;;;;;;;;;;;;;5020851;28;19913;-85
2021/04/09 12:24:48;;;;;;;;;;;;;;;;;;5053425;28;19908;-85
2021/04/09 12:27:15;;;;;;;;;;;;;;;;;;5036810;28;19909;-85
2021/04/09 12:29:40;;;;;;;;;;;;;;;;;;5033668;28;19995;-86
2021/04/09 12:32:06;;;;;;;;;;;;;;;;;;5032815;28;19959;-85
2021/04/09 12:34:31;;;;;;;;;;;;;;;;;;5033264;28;19916;-87
2021/04/09 12:36:56;;;;;;;;;;;;;;;;;;5033209;28;19921;-86
2021/04/09 12:39:22;;;;;;;;;;;;;;;;;;5033258;28;20071;-86
2021/04/09 12:41:47;;;;;;;;;;;;;;;;;;5033244;28;20362;-85
2021/04/09 12:44:14;;;;;;;;;;;;;;;;;;5033017;28;19913;-86
2021/04/09 12:46:40;;;;;;;;;;;;;;;;;;5049771;28;19909;-85
2021/04/09 12:49:05;;;;;;;;;;;;;;;;;;5032779;28;20266;-85
2021/04/09 12:51:31;;;;;;;;;;;;;;;;;;5049368;28;19912;-85
2021/04/09 12:53:56;;;;;;;;;;;;;;;;;;5033078;28;19916;-85
2021/04/09 12:56:21;;;;;;;;;;;;;;;;;;5032891;28;19919;-85
2021/04/09 12:58:47;;;;;;;;;;;;;;;;;;5032553;28;19923;-85
2021/04/09 13:01:12;;;;;;;;;;;;;;;;;;5032770;28;19948;-85
2021/04/09 13:03:37;;;;;;;;;;;;;;;;;;5036014;28;20385;-84
2021/04/09 13:06:06;;;;;;;;;;;;;;;;;;5018872;28;19948;-85
2021/04/09 13:08:32;;;;;;;;;;;;;;;;;;5036084;28;19913;-84
2021/04/09 13:10:57;;;;;;;;;;;;;;;;;;5019313;28;19963;-85
2021/04/09 13:13:23;;;;;;;;;;;;;;;;;;5019137;28;19923;-85
2021/04/09 13:15:48;;;;;;;;;;;;;;;;;;5019512;28;19919;-85
2021/04/09 13:18:13;;;;;;;;;;;;;;;;;;5035511;28;20279;-85
2021/04/09 13:20:38;;;;;;;;;;;;;;;;;;5019420;28;19916;-86
2021/04/09 13:23:04;;;;;;;;;;;;;;;;;;5035693;28;20370;-85
2021/04/09 13:25:29;;;;;;;;;;;;;;;;;;5035288;28;20002;-85
2021/04/09 13:27:54;;;;;;;;;;;;;;;;;;5018898;28;19915;-84
2021/04/09 13:30:21;;;;;;;;;;;;;;;;;;5031923;28;20029;-85
2021/04/09 13:32:46;;;;;;;;;;;;;;;;;;5032087;28;19913;-85
2021/04/09 13:35:11;;;;;;;;;;;;;;;;;;5032391;28;19920;-85
2021/04/09 13:37:37;;;;;;;;;;;;;;;;;;5032322;28;20279;-85
2021/04/09 13:40:02;;;;;;;;;;;;;;;;;;5015664;28;19946;-85
2021/04/09 13:42:27;;;;;;;;;;;;;;;;;;5031390;28;19913;-86
2021/04/09 13:44:53;;;;;;;;;;;;;;;;;;5015705;28;20285;-85
2021/04/09 13:47:18;;;;;;;;;;;;;;;;;;5015872;28;19966;-85
2021/04/09 13:49:43;;;;;;;;;;;;;;;;;;5031982;28;19916;-85
2021/04/09 13:52:08;;;;;;;;;;;;;;;;;;5048321;28;19959;-85
2021/04/09 13:54:34;;;;;;;;;;;;;;;;;;5031430;28;19916;-84
2021/04/09 13:56:59;;;;;;;;;;;;;;;;;;5031725;28;19956;-83
2021/04/09 13:59:24;;;;;;;;;;;;;;;;;;5047908;28;19913;-82
2021/04/09 14:01:49;;;;;;;;;;;;;;;;;;5047897;28;19909;-83
2021/04/09 14:04:15;;;;;;;;;;;;;;;;;;5014564;28;20255;-83
2021/04/09 14:06:40;;;;;;;;;;;;;;;;;;5031353;28;19909;-83
2021/04/09 14:09:05;;;;;;;;;;;;;;;;;;5031399;28;20355;-82
2021/04/09 14:11:30;;;;;;;;;;;;;;;;;;5030610;28;19992;-82
2021/04/09 14:13:56;;;;;;;;;;;;;;;;;;5034078;28;19966;-83
2021/04/09 14:16:22;;;;;;;;;;;;;;;;;;5018029;28;19919;-83
2021/04/09 14:18:48;;;;;;;;;;;;;;;;;;5051258;28;19912;-83
2021/04/09 14:21:13;;;;;;;;;;;;;;;;;;5018008;28;19962;-83
2021/04/09 14:23:38;;;;;;;;;;;;;;;;;;5018140;28;19908;-85
2021/04/09 14:26:03;;;;;;;;;;;;;;;;;;5017650;28;19909;-84
2021/04/09 14:28:29;;;;;;;;;;;;;;;;;;5034479;28;20379;-85
2021/04/09 14:30:57;;;;;;;;;;;;;;;;;;5014141;28;19909;-84
2021/04/09 14:33:23;;;;;;;;;;;;;;;;;;5031103;28;19913;-83
2021/04/09 14:35:48;;;;;;;;;;;;;;;;;;5048024;28;19909;-84
2021/04/09 14:38:13;;;;;;;;;;;;;;;;;;5015551;28;20007;-87
2021/04/09 14:40:39;;;;;;;;;;;;;;;;;;5014697;28;19920;-81
2021/04/09 14:43:04;;;;;;;;;;;;;;;;;;5047683;28;19913;-79
2021/04/09 14:45:35;;;;;;;;;;;;;;;;;;5047423;28;19913;-82
2021/04/09 14:48:00;;;;;;;;;;;;;;;;;;5014476;28;19966;-80
2021/04/09 14:50:25;;;;;;;;;;;;;;;;;;5030663;28;19991;-82
2021/04/09 14:52:53;;;;;;;;;;;;;;;;;;5030859;28;19913;-86
2021/04/09 14:55:18;;;;;;;;;;;;;;;;;;5014375;28;19909;-85
2021/04/09 14:57:44;;;;;;;;;;;;;;;;;;5014819;28;19996;-85
2021/04/09 15:00:10;;;;;;;;;;;;;;;;;;5030709;28;20278;-86
2021/04/09 15:02:36;;;;;;;;;;;;;;;;;;5042320;28;19909;-85
2021/04/09 15:05:01;;;;;;;;;;;;;;;;;;5017890;28;19939;-85
2021/04/09 15:07:26;;;;;;;;;;;;;;;;;;5034129;28;20397;-85
2021/04/09 15:09:52;;;;;;;;;;;;;;;;;;5034133;28;19955;-82
2021/04/09 15:12:17;;;;;;;;;;;;;;;;;;5033910;28;19912;-84
2021/04/09 15:14:43;;;;;;;;;;;;;;;;;;5017341;28;20011;-84
2021/04/09 15:17:08;;;;;;;;;;;;;;;;;;5033799;28;19908;-84
2021/04/09 15:19:35;;;;;;;;;;;;;;;;;;5034270;28;19915;-83
2021/04/09 15:22:00;;;;;;;;;;;;;;;;;;5033866;28;19962;-84
2021/04/09 15:24:25;;;;;;;;;;;;;;;;;;5050187;28;19908;-83
2021/04/09 15:26:51;;;;;;;;;;;;;;;;;;5050745;28;19909;-84
2021/04/09 15:29:16;;;;;;;;;;;;;;;;;;5031781;28;19959;-84
2021/04/09 15:31:41;;;;;;;;;;;;;;;;;;5033806;28;19920;-85
2021/04/09 15:34:06;;;;;;;;;;;;;;;;;;5034242;28;19924;-84
2021/04/09 15:36:32;;;;;;;;;;;;;;;;;;5017926;28;20394;-83
2021/04/09 15:39:01;;;;;;;;;;;;;;;;;;5034093;28;19913;-83
2021/04/09 15:41:26;;;;;;;;;;;;;;;;;;5033711;28;19917;-83
2021/04/09 15:43:52;;;;;;;;;;;;;;;;;;5017874;28;19921;-83
2021/04/09 15:46:17;;;;;;;;;;;;;;;;;;5017648;28;19913;-84
2021/04/09 15:48:42;;;;;;;;;;;;;;;;;;5017635;28;20008;-84
2021/04/09 15:51:08;;;;;;;;;;;;;;;;;;5033812;28;20382;-84
2021/04/09 15:53:33;;;;;;;;;;;;;;;;;;5033895;28;19909;-83
2021/04/09 15:55:59;;;;;;;;;;;;;;;;;;5033635;28;20406;-83
2021/04/09 15:58:24;;;;;;;;;;;;;;;;;;5017276;28;19909;-85
2021/04/09 16:00:50;;;;;;;;;;;;;;;;;;5033265;28;19908;-84
2021/04/09 16:03:16;;;;;;;;;;;;;;;;;;5020473;28;19909;-84
2021/04/09 16:05:41;;;;;;;;;;;;;;;;;;5036885;28;19908;-84
2021/04/09 16:08:06;;;;;;;;;;;;;;;;;;5036620;28;20328;-84
2021/04/09 16:10:32;;;;;;;;;;;;;;;;;;5036752;28;19963;-84
2021/04/09 16:12:57;;;;;;;;;;;;;;;;;;5020491;28;19936;-84
2021/04/09 16:15:22;;;;;;;;;;;;;;;;;;5053557;28;19969;-84
2021/04/09 16:17:48;;;;;;;;;;;;;;;;;;5036682;28;19944;-84
2021/04/09 16:20:14;;;;;;;;;;;;;;;;;;5020177;28;20429;-84
2021/04/09 16:22:39;;;;;;;;;;;;;;;;;;5019984;28;20278;-85
2021/04/09 16:25:05;;;;;;;;;;;;;;;;;;5036430;28;19909;-84
2021/04/09 16:27:30;;;;;;;;;;;;;;;;;;5020002;28;19954;-84
2021/04/09 16:29:56;;;;;;;;;;;;;;;;;;5016603;28;19909;-84
2021/04/09 16:32:21;;;;;;;;;;;;;;;;;;5032763;28;19913;-84
2021/04/09 16:34:46;;;;;;;;;;;;;;;;;;5016559;28;20441;-84
2021/04/09 16:37:12;;;;;;;;;;;;;;;;;;5050015;28;20287;-84
2021/04/09 16:39:37;;;;;;;;;;;;;;;;;;5016482;28;20318;-83
2021/04/09 16:42:03;;;;;;;;;;;;;;;;;;5016470;28;19913;-84